Time;durP1;ratioP1;P1;durP2;ratioP2;P2;SDS_P1;SDS_P2;PMS_P1;PMS_P2;Temp;Humidity;BMP_temperature;BMP_pressure;BME280_temperature;BME280_humidity;BME280_pressure;Samples;Min_cycle;Max_cycle;Signal;HPM_P1;HPM_P2
2021/06/11 00:00:27;;;;;;;9.02;6.20;;;;;;;;;;2044089;29;20314;-57
2021/06/11 00:01:27;;;;;;;6.93;6.35;;;;;;;;;;2039367;29;20187;-57
2021/06/11 00:02:28;;;;;;;7.30;6.60;;;;;;;;;;2040079;29;20196;-58
2021/06/11 00:03:28;;;;;;;8.40;7.50;;;;;;;;;;2039913;29;20183;-60
2021/06/11 00:04:28;;;;;;;6.75;5.97;;;;;;;;;;2041662;29;20183;-60
2021/06/11 00:05:29;;;;;;;6.82;6.28;;;;;;;;;;2045883;29;20578;-62
2021/06/11 00:06:31;;;;;;;6.70;6.10;;;;;;;;;;2045486;29;20574;-60
2021/06/11 00:07:33;;;;;;;7.70;6.15;;;;;;;;;;2051264;28;20170;-60
2021/06/11 00:08:33;;;;;;;6.55;6.05;;;;;;;;;;2045684;29;20202;-61
2021/06/11 00:09:34;;;;;;;7.28;6.03;;;;;;;;;;2047799;29;20187;-57
2021/06/11 00:10:34;;;;;;;6.45;5.95;;;;;;;;;;2040645;29;20175;-60
2021/06/11 00:11:34;;;;;;;6.38;5.78;;;;;;;;;;2046503;28;20183;-59
2021/06/11 00:12:34;;;;;;;5.95;5.45;;;;;;;;;;2041344;29;20699;-61
2021/06/11 00:13:35;;;;;;;6.70;6.13;;;;;;;;;;2042992;29;20644;-59
2021/06/11 00:14:35;;;;;;;6.60;6.00;;;;;;;;;;2047238;29;20175;-54
2021/06/11 00:15:36;;;;;;;7.90;6.10;;;;;;;;;;2042094;28;20319;-58
2021/06/11 00:16:36;;;;;;;7.07;6.40;;;;;;;;;;2042304;29;20184;-59
2021/06/11 00:17:36;;;;;;;7.40;6.55;;;;;;;;;;2042723;29;20191;-57
2021/06/11 00:18:36;;;;;;;6.72;6.13;;;;;;;;;;2048878;29;20167;-57
2021/06/11 00:19:37;;;;;;;6.90;5.70;;;;;;;;;;2038196;29;20196;-58
2021/06/11 00:20:37;;;;;;;5.43;5.03;;;;;;;;;;2047717;29;20213;-59
2021/06/11 00:21:38;;;;;;;6.38;5.80;;;;;;;;;;2042438;29;20270;-57
2021/06/11 00:22:38;;;;;;;6.40;5.78;;;;;;;;;;2047899;29;20199;-61
2021/06/11 00:23:38;;;;;;;6.60;6.00;;;;;;;;;;2036720;29;20192;-59
2021/06/11 00:24:39;;;;;;;6.82;6.18;;;;;;;;;;2041743;29;20184;-57
2021/06/11 00:25:39;;;;;;;7.10;6.38;;;;;;;;;;2047820;29;20615;-56
2021/06/11 00:26:39;;;;;;;6.75;6.07;;;;;;;;;;2041587;29;20214;-58
2021/06/11 00:27:40;;;;;;;7.15;6.50;;;;;;;;;;2048450;28;20336;-57
2021/06/11 00:28:40;;;;;;;7.05;6.22;;;;;;;;;;2041371;28;20242;-57
2021/06/11 00:29:40;;;;;;;7.53;6.93;;;;;;;;;;2038465;29;20183;-60
2021/06/11 00:30:41;;;;;;;6.82;6.15;;;;;;;;;;2040077;29;20172;-58
2021/06/11 00:31:41;;;;;;;7.57;6.75;;;;;;;;;;2046546;28;20213;-58
2021/06/11 00:32:42;;;;;;;8.45;7.45;;;;;;;;;;2036260;29;20251;-60
2021/06/11 00:33:42;;;;;;;6.57;5.97;;;;;;;;;;2044668;29;20218;-60
2021/06/11 00:34:42;;;;;;;7.35;6.75;;;;;;;;;;2042086;29;20175;-59
2021/06/11 00:35:42;;;;;;;6.55;6.05;;;;;;;;;;2048953;29;20175;-59
2021/06/11 00:36:43;;;;;;;7.20;6.47;;;;;;;;;;2041157;28;20186;-61
2021/06/11 00:37:43;;;;;;;7.43;6.72;;;;;;;;;;2037211;29;20279;-59
2021/06/11 00:38:43;;;;;;;11.30;6.90;;;;;;;;;;2048443;29;20175;-58
2021/06/11 00:39:43;;;;;;;7.00;6.40;;;;;;;;;;2033579;29;20313;-60
2021/06/11 00:40:44;;;;;;;6.80;6.18;;;;;;;;;;2044211;29;20179;-59
2021/06/11 00:41:45;;;;;;;7.60;6.25;;;;;;;;;;2040559;29;20549;-58
2021/06/11 00:42:45;;;;;;;6.32;5.72;;;;;;;;;;2040136;29;20187;-56
2021/06/11 00:43:45;;;;;;;7.18;6.57;;;;;;;;;;2048093;29;20625;-57
2021/06/11 00:44:45;;;;;;;6.72;6.03;;;;;;;;;;2040178;29;20610;-60
2021/06/11 00:45:46;;;;;;;7.43;6.55;;;;;;;;;;2048001;29;20589;-59
2021/06/11 00:46:46;;;;;;;8.73;6.43;;;;;;;;;;2040961;29;20640;-58
2021/06/11 00:47:46;;;;;;;7.05;6.55;;;;;;;;;;2049057;28;20201;-58
2021/06/11 00:48:47;;;;;;;6.22;5.72;;;;;;;;;;2042115;29;20182;-58
2021/06/11 00:49:48;;;;;;;6.90;6.35;;;;;;;;;;2037839;29;20256;-55
2021/06/11 00:50:48;;;;;;;7.35;6.65;;;;;;;;;;2049546;28;20171;-54
2021/06/11 00:51:49;;;;;;;8.00;6.57;;;;;;;;;;2035220;29;20255;-58
2021/06/11 00:52:53;;;;;;;7.88;7.18;;;;;;;;;;2041208;29;20566;-56
2021/06/11 00:53:54;;;;;;;7.75;7.05;;;;;;;;;;2042889;29;20179;-54
2021/06/11 00:54:54;;;;;;;6.95;6.25;;;;;;;;;;2042953;28;20298;-58
2021/06/11 00:55:54;;;;;;;7.57;6.53;;;;;;;;;;2056269;28;20181;-60
2021/06/11 00:56:55;;;;;;;6.50;6.00;;;;;;;;;;2042390;29;20175;-59
2021/06/11 00:57:56;;;;;;;7.88;7.07;;;;;;;;;;2047730;28;20205;-60
2021/06/11 00:58:56;;;;;;;7.45;6.70;;;;;;;;;;2044950;28;20202;-65
2021/06/11 00:59:57;;;;;;;7.55;6.95;;;;;;;;;;2055170;28;20257;-59
2021/06/11 01:00:57;;;;;;;7.38;6.68;;;;;;;;;;2040889;29;20171;-59
2021/06/11 01:01:57;;;;;;;10.00;7.43;;;;;;;;;;2043391;29;20688;-56
2021/06/11 01:02:58;;;;;;;7.45;6.85;;;;;;;;;;2048784;29;20175;-59
2021/06/11 01:03:58;;;;;;;7.07;6.50;;;;;;;;;;2048683;29;20194;-58
2021/06/11 01:04:58;;;;;;;10.15;6.80;;;;;;;;;;2042952;29;20180;-61
2021/06/11 01:05:58;;;;;;;8.43;7.50;;;;;;;;;;2048511;29;20286;-59
2021/06/11 01:07:00;;;;;;;7.15;6.45;;;;;;;;;;2040914;29;20181;-58
2021/06/11 01:08:01;;;;;;;7.63;6.93;;;;;;;;;;2042185;29;20208;-55
2021/06/11 01:09:01;;;;;;;8.60;7.82;;;;;;;;;;2044136;29;20171;-59
2021/06/11 01:10:03;;;;;;;8.40;7.65;;;;;;;;;;2046870;29;20211;-59
2021/06/11 01:11:03;;;;;;;7.47;6.88;;;;;;;;;;2046259;29;20742;-61
2021/06/11 01:12:07;;;;;;;7.88;7.25;;;;;;;;;;2044147;29;20200;-58
2021/06/11 01:13:08;;;;;;;7.93;7.15;;;;;;;;;;2047362;28;20201;-59
2021/06/11 01:14:09;;;;;;;8.38;7.65;;;;;;;;;;2046878;29;20202;-58
2021/06/11 01:15:10;;;;;;;8.35;7.65;;;;;;;;;;2048417;28;20660;-54
2021/06/11 01:16:10;;;;;;;7.40;6.65;;;;;;;;;;2044273;29;20178;-60
2021/06/11 01:17:11;;;;;;;7.18;6.65;;;;;;;;;;2046945;29;20616;-61
2021/06/11 01:18:12;;;;;;;6.90;6.30;;;;;;;;;;2046314;29;20179;-60
2021/06/11 01:19:13;;;;;;;6.82;6.22;;;;;;;;;;2047732;28;20672;-53
2021/06/11 01:20:13;;;;;;;6.82;6.28;;;;;;;;;;2041594;29;20251;-56
2021/06/11 01:21:14;;;;;;;7.05;6.30;;;;;;;;;;2046253;29;20187;-60
2021/06/11 01:22:33;;;;;;;7.35;6.75;;;;;;;;;;2043303;29;20203;-53
2021/06/11 01:23:41;;;;;;;7.80;6.72;;;;;;;;;;2042921;29;20175;-56
2021/06/11 01:24:53;;;;;;;7.28;6.57;;;;;;;;;;2042837;29;20270;-55
2021/06/11 01:26:14;;;;;;;8.25;7.32;;;;;;;;;;2036835;29;20276;-53
2021/06/11 01:27:14;;;;;;;8.15;7.00;;;;;;;;;;2042645;29;20250;-57
2021/06/11 01:28:15;;;;;;;6.95;6.40;;;;;;;;;;2045429;28;20554;-59
2021/06/11 01:29:17;;;;;;;7.95;7.25;;;;;;;;;;2043502;29;20187;-55
2021/06/11 01:30:24;;;;;;;7.40;6.60;;;;;;;;;;2046040;28;20175;-55
2021/06/11 01:31:25;;;;;;;7.15;6.65;;;;;;;;;;2042385;29;20712;-53
2021/06/11 01:32:25;;;;;;;10.27;7.75;;;;;;;;;;2048794;29;20239;-57
2021/06/11 01:33:27;;;;;;;7.53;6.93;;;;;;;;;;2050639;28;20183;-57
2021/06/11 01:34:36;;;;;;;8.55;7.85;;;;;;;;;;2044766;28;20192;-58
2021/06/11 01:35:41;;;;;;;9.32;7.65;;;;;;;;;;2048913;29;20242;-58
2021/06/11 01:36:46;;;;;;;7.72;7.03;;;;;;;;;;2042286;29;20251;-54
2021/06/11 01:37:47;;;;;;;7.47;6.45;;;;;;;;;;2042200;29;20187;-57
2021/06/11 01:38:48;;;;;;;7.13;6.22;;;;;;;;;;2042692;28;20191;-56
2021/06/11 01:39:53;;;;;;;7.53;6.85;;;;;;;;;;2055078;28;20277;-57
2021/06/11 01:40:54;;;;;;;8.40;7.70;;;;;;;;;;2037343;29;20172;-59
2021/06/11 01:41:54;;;;;;;7.65;6.90;;;;;;;;;;2042954;29;20179;-56
2021/06/11 01:42:56;;;;;;;9.00;7.93;;;;;;;;;;2043817;29;20632;-53
2021/06/11 01:43:58;;;;;;;8.02;7.30;;;;;;;;;;2049416;28;20178;-59
2021/06/11 01:44:59;;;;;;;7.32;6.80;;;;;;;;;;2044127;29;20204;-53
2021/06/11 01:45:59;;;;;;;8.23;7.63;;;;;;;;;;2049161;29;20171;-57
2021/06/11 01:47:00;;;;;;;8.20;7.50;;;;;;;;;;2043277;29;20595;-59
2021/06/11 01:48:00;;;;;;;7.57;6.88;;;;;;;;;;2048964;28;20176;-59
2021/06/11 01:49:01;;;;;;;8.52;7.70;;;;;;;;;;2039884;29;20193;-57
2021/06/11 01:50:02;;;;;;;6.75;6.25;;;;;;;;;;2043148;29;20184;-60
2021/06/11 01:51:03;;;;;;;6.85;6.32;;;;;;;;;;2044888;29;20187;-57
2021/06/11 01:52:05;;;;;;;7.60;6.78;;;;;;;;;;2052392;28;20214;-61
2021/06/11 01:53:05;;;;;;;11.60;8.43;;;;;;;;;;2056362;28;20171;-54
2021/06/11 01:54:08;;;;;;;13.82;8.43;;;;;;;;;;2044482;29;20175;-61
2021/06/11 01:55:09;;;;;;;9.68;7.60;;;;;;;;;;2043150;29;20598;-56
2021/06/11 01:56:10;;;;;;;8.48;7.78;;;;;;;;;;2040758;29;20194;-56
2021/06/11 01:57:11;;;;;;;8.07;7.28;;;;;;;;;;2042662;29;20174;-61
2021/06/11 01:58:11;;;;;;;8.18;7.47;;;;;;;;;;2045812;28;20224;-57
2021/06/11 01:59:11;;;;;;;7.45;6.78;;;;;;;;;;2041878;29;20766;-57
2021/06/11 02:00:13;;;;;;;8.07;7.47;;;;;;;;;;2041463;29;20181;-54
2021/06/11 02:01:13;;;;;;;7.97;7.18;;;;;;;;;;2038825;29;20215;-54
2021/06/11 02:02:14;;;;;;;7.60;7.00;;;;;;;;;;2043842;29;20187;-57
2021/06/11 02:03:16;;;;;;;7.55;6.95;;;;;;;;;;2046253;29;20211;-57
2021/06/11 02:04:17;;;;;;;7.90;6.95;;;;;;;;;;2044088;29;20235;-60
2021/06/11 02:05:18;;;;;;;7.65;7.03;;;;;;;;;;2039217;29;20186;-57
2021/06/11 02:06:20;;;;;;;7.60;7.00;;;;;;;;;;2044950;29;20175;-58
2021/06/11 02:07:20;;;;;;;8.23;7.53;;;;;;;;;;2049383;28;20183;-56
2021/06/11 02:08:21;;;;;;;8.98;8.18;;;;;;;;;;2047158;29;20270;-57
2021/06/11 02:09:22;;;;;;;8.05;7.35;;;;;;;;;;2046988;29;20178;-57
2021/06/11 02:10:23;;;;;;;7.28;6.75;;;;;;;;;;2046679;28;20179;-56
2021/06/11 02:11:23;;;;;;;8.20;7.50;;;;;;;;;;2047185;29;20187;-58
2021/06/11 02:12:23;;;;;;;8.95;7.60;;;;;;;;;;2045585;28;20195;-58
2021/06/11 02:13:24;;;;;;;9.10;8.18;;;;;;;;;;2046620;29;20195;-58
2021/06/11 02:14:24;;;;;;;7.85;7.22;;;;;;;;;;2045377;28;20211;-60
2021/06/11 02:15:26;;;;;;;7.50;6.90;;;;;;;;;;2048119;29;20187;-52
2021/06/11 02:16:29;;;;;;;7.53;6.50;;;;;;;;;;2042748;29;20278;-57
2021/06/11 02:17:29;;;;;;;8.07;7.28;;;;;;;;;;2046284;29;20179;-57
2021/06/11 02:18:30;;;;;;;8.68;7.90;;;;;;;;;;2047624;29;20185;-58
2021/06/11 02:19:33;;;;;;;7.78;7.10;;;;;;;;;;2042524;29;20598;-56
2021/06/11 02:20:33;;;;;;;8.60;7.90;;;;;;;;;;2041890;29;20172;-57
2021/06/11 02:21:34;;;;;;;8.15;7.45;;;;;;;;;;2048669;29;20171;-60
2021/06/11 02:22:36;;;;;;;8.98;7.70;;;;;;;;;;2042444;28;20586;-57
2021/06/11 02:23:36;;;;;;;7.45;6.85;;;;;;;;;;2049886;29;20171;-57
2021/06/11 02:24:38;;;;;;;8.13;7.43;;;;;;;;;;2042672;28;20207;-57
2021/06/11 02:25:38;;;;;;;8.38;7.68;;;;;;;;;;2044283;29;20187;-58
2021/06/11 02:26:39;;;;;;;8.65;7.95;;;;;;;;;;2049195;29;20606;-58
2021/06/11 02:27:40;;;;;;;9.32;7.95;;;;;;;;;;2042980;28;20702;-56
2021/06/11 02:28:40;;;;;;;8.55;7.78;;;;;;;;;;2049102;29;20179;-55
2021/06/11 02:29:41;;;;;;;8.80;8.02;;;;;;;;;;2041040;29;20206;-58
2021/06/11 02:30:41;;;;;;;8.73;7.90;;;;;;;;;;2044853;28;20267;-59
2021/06/11 02:31:42;;;;;;;9.20;8.43;;;;;;;;;;2039423;29;20211;-57
2021/06/11 02:32:42;;;;;;;8.32;7.55;;;;;;;;;;2050000;29;20175;-59
2021/06/11 02:33:43;;;;;;;8.50;7.80;;;;;;;;;;2041809;29;20597;-57
2021/06/11 02:34:43;;;;;;;9.10;8.30;;;;;;;;;;2040935;29;20178;-55
2021/06/11 02:35:43;;;;;;;9.40;8.50;;;;;;;;;;2041266;29;20695;-58
2021/06/11 02:36:43;;;;;;;8.27;7.43;;;;;;;;;;2042156;29;20192;-59
2021/06/11 02:37:45;;;;;;;8.80;7.97;;;;;;;;;;2038946;29;20337;-60
2021/06/11 02:38:45;;;;;;;10.82;8.05;;;;;;;;;;2035511;29;20205;-60
2021/06/11 02:39:45;;;;;;;8.85;8.13;;;;;;;;;;2041794;28;20601;-57
2021/06/11 02:40:46;;;;;;;7.85;7.18;;;;;;;;;;2050464;29;20171;-60
2021/06/11 02:41:51;;;;;;;8.30;7.50;;;;;;;;;;2041949;29;20203;-55
2021/06/11 02:42:54;;;;;;;8.88;8.00;;;;;;;;;;2049288;28;20636;-59
2021/06/11 02:43:55;;;;;;;7.95;7.25;;;;;;;;;;2037278;29;20271;-56
2021/06/11 02:44:59;;;;;;;7.47;6.97;;;;;;;;;;2042179;29;20180;-60
2021/06/11 02:46:09;;;;;;;9.52;8.55;;;;;;;;;;2046351;29;20643;-57
2021/06/11 02:47:15;;;;;;;9.02;7.95;;;;;;;;;;2050412;28;20524;-60
2021/06/11 02:48:27;;;;;;;9.82;8.90;;;;;;;;;;2046689;28;20183;-54
2021/06/11 02:49:39;;;;;;;8.68;8.02;;;;;;;;;;2048280;29;20647;-57
2021/06/11 02:51:00;;;;;;;8.98;8.27;;;;;;;;;;2043388;28;20195;-56
2021/06/11 02:52:02;;;;;;;8.38;7.68;;;;;;;;;;2044122;29;20200;-53
2021/06/11 02:53:03;;;;;;;10.73;8.90;;;;;;;;;;2049364;28;20184;-58
2021/06/11 02:54:07;;;;;;;8.23;7.57;;;;;;;;;;2047105;28;20191;-58
2021/06/11 02:55:08;;;;;;;8.50;7.60;;;;;;;;;;2048606;29;20193;-55
2021/06/11 02:56:15;;;;;;;8.07;7.40;;;;;;;;;;2047852;28;20541;-57
2021/06/11 02:57:22;;;;;;;8.90;7.88;;;;;;;;;;2046719;29;20190;-58
2021/06/11 02:58:25;;;;;;;8.23;7.47;;;;;;;;;;2045534;28;20191;-56
2021/06/11 02:59:51;;;;;;;8.57;7.80;;;;;;;;;;2043801;29;20205;-58
2021/06/11 03:00:52;;;;;;;7.90;7.30;;;;;;;;;;2035587;29;20206;-56
2021/06/11 03:01:59;;;;;;;8.73;7.93;;;;;;;;;;2048159;28;20230;-55
2021/06/11 03:03:18;;;;;;;8.60;7.82;;;;;;;;;;2044413;29;20632;-59
2021/06/11 03:04:18;;;;;;;8.38;7.68;;;;;;;;;;2045916;28;20171;-57
2021/06/11 03:05:21;;;;;;;8.60;7.78;;;;;;;;;;2047473;29;20203;-58
2021/06/11 03:06:22;;;;;;;8.90;8.20;;;;;;;;;;2045394;28;20636;-57
2021/06/11 03:07:29;;;;;;;10.82;9.70;;;;;;;;;;2044830;29;20179;-58
2021/06/11 03:08:31;;;;;;;9.07;8.38;;;;;;;;;;2045470;29;20164;-58
2021/06/11 03:09:33;;;;;;;9.60;8.60;;;;;;;;;;2047501;28;20185;-57
2021/06/11 03:10:34;;;;;;;9.27;8.38;;;;;;;;;;2042632;29;20825;-56
2021/06/11 03:11:39;;;;;;;9.25;8.43;;;;;;;;;;2048587;29;20194;-58
2021/06/11 03:12:40;;;;;;;10.63;9.63;;;;;;;;;;2042417;28;20190;-52
2021/06/11 03:13:42;;;;;;;12.05;10.18;;;;;;;;;;2044742;28;20175;-54
2021/06/11 03:14:43;;;;;;;10.77;9.77;;;;;;;;;;2043168;29;20210;-57
2021/06/11 03:15:45;;;;;;;15.20;12.07;;;;;;;;;;2047076;28;20171;-56
2021/06/11 03:16:47;;;;;;;12.10;10.85;;;;;;;;;;2035316;29;20176;-59
2021/06/11 03:17:49;;;;;;;10.27;9.25;;;;;;;;;;2039576;29;20207;-56
2021/06/11 03:18:54;;;;;;;10.00;9.00;;;;;;;;;;2043476;28;20182;-61
2021/06/11 03:19:57;;;;;;;10.40;8.50;;;;;;;;;;2036530;29;20185;-53
2021/06/11 03:21:01;;;;;;;9.65;8.85;;;;;;;;;;2034558;29;20203;-58
2021/06/11 03:22:08;;;;;;;9.32;8.43;;;;;;;;;;2035190;29;20208;-55
2021/06/11 03:23:10;;;;;;;8.75;8.00;;;;;;;;;;2044890;29;20167;-57
2021/06/11 03:24:16;;;;;;;9.50;8.70;;;;;;;;;;2044727;28;20533;-60
2021/06/11 03:25:25;;;;;;;9.73;8.73;;;;;;;;;;2043578;29;20174;-58
2021/06/11 03:26:27;;;;;;;9.00;8.20;;;;;;;;;;2044513;29;20182;-56
2021/06/11 03:27:34;;;;;;;9.18;8.48;;;;;;;;;;2047083;29;20714;-60
2021/06/11 03:28:52;;;;;;;9.55;8.60;;;;;;;;;;2050475;28;20179;-59
2021/06/11 03:29:55;;;;;;;10.02;8.68;;;;;;;;;;2050805;28;20171;-51
2021/06/11 03:30:56;;;;;;;9.32;8.60;;;;;;;;;;2050481;28;20190;-57
2021/06/11 03:31:58;;;;;;;9.80;9.00;;;;;;;;;;2049708;29;20195;-55
2021/06/11 03:33:02;;;;;;;8.63;7.85;;;;;;;;;;2050310;29;20217;-54
2021/06/11 03:34:03;;;;;;;9.30;8.40;;;;;;;;;;2046885;28;20254;-54
2021/06/11 03:35:06;;;;;;;10.07;9.20;;;;;;;;;;2042125;29;20183;-53
2021/06/11 03:36:16;;;;;;;9.30;8.32;;;;;;;;;;2042425;29;20238;-55
2021/06/11 03:37:17;;;;;;;9.10;8.30;;;;;;;;;;2042886;29;20711;-57
2021/06/11 03:38:20;;;;;;;9.35;8.55;;;;;;;;;;2043166;29;20171;-56
2021/06/11 03:39:35;;;;;;;9.35;8.63;;;;;;;;;;2042111;29;20211;-58
2021/06/11 03:40:37;;;;;;;9.80;8.90;;;;;;;;;;2042478;29;20164;-57
2021/06/11 03:41:37;;;;;;;10.18;9.35;;;;;;;;;;2041589;29;20180;-57
2021/06/11 03:42:38;;;;;;;9.73;8.82;;;;;;;;;;2042770;29;20554;-57
2021/06/11 03:43:38;;;;;;;9.75;8.85;;;;;;;;;;2042791;29;20243;-55
2021/06/11 03:44:43;;;;;;;9.77;8.90;;;;;;;;;;2042205;29;20172;-56
2021/06/11 03:45:43;;;;;;;9.80;8.90;;;;;;;;;;2042340;29;20206;-56
2021/06/11 03:46:45;;;;;;;11.32;10.13;;;;;;;;;;2042379;29;20625;-55
2021/06/11 03:47:46;;;;;;;10.93;9.88;;;;;;;;;;2042261;29;20195;-56
2021/06/11 03:48:49;;;;;;;11.18;10.10;;;;;;;;;;2042257;29;20191;-58
2021/06/11 03:49:51;;;;;;;11.23;10.15;;;;;;;;;;2042455;29;20188;-60
2021/06/11 03:50:52;;;;;;;11.88;10.48;;;;;;;;;;2041974;29;20191;-57
2021/06/11 03:51:53;;;;;;;10.48;9.57;;;;;;;;;;2041538;29;20744;-53
2021/06/11 03:52:54;;;;;;;11.45;10.32;;;;;;;;;;2050096;29;20163;-57
2021/06/11 03:53:56;;;;;;;10.93;9.93;;;;;;;;;;2042651;29;20171;-58
2021/06/11 03:55:01;;;;;;;11.75;10.43;;;;;;;;;;2042867;29;20186;-54
2021/06/11 03:56:03;;;;;;;11.45;10.50;;;;;;;;;;2041877;29;20178;-57
2021/06/11 03:57:04;;;;;;;10.88;10.05;;;;;;;;;;2042109;29;20178;-61
2021/06/11 03:58:09;;;;;;;11.38;10.27;;;;;;;;;;2040974;29;20187;-54
2021/06/11 03:59:13;;;;;;;12.20;11.05;;;;;;;;;;2040002;29;20218;-58
2021/06/11 04:00:13;;;;;;;11.25;10.15;;;;;;;;;;2042029;29;20182;-59
2021/06/11 04:01:20;;;;;;;11.13;10.13;;;;;;;;;;2042872;29;20607;-53
2021/06/11 04:02:20;;;;;;;12.02;10.85;;;;;;;;;;2043430;29;20190;-59
2021/06/11 04:03:20;;;;;;;12.07;10.88;;;;;;;;;;2040351;28;20244;-52
2021/06/11 04:04:21;;;;;;;11.60;10.63;;;;;;;;;;2043338;29;20188;-53
2021/06/11 04:05:21;;;;;;;12.52;11.32;;;;;;;;;;2044442;28;20757;-55
2021/06/11 04:06:24;;;;;;;13.55;11.57;;;;;;;;;;2047538;29;20768;-51
2021/06/11 04:07:31;;;;;;;12.90;11.48;;;;;;;;;;2045725;28;20180;-57
2021/06/11 04:08:33;;;;;;;12.50;11.32;;;;;;;;;;2042099;29;20742;-60
2021/06/11 04:09:56;;;;;;;14.57;11.90;;;;;;;;;;2047393;29;20178;-56
2021/06/11 04:10:57;;;;;;;13.45;12.05;;;;;;;;;;2036862;29;20619;-56
2021/06/11 04:12:02;;;;;;;13.13;11.93;;;;;;;;;;2047748;28;20207;-58
2021/06/11 04:13:12;;;;;;;12.80;11.60;;;;;;;;;;2042583;29;20180;-61
2021/06/11 04:14:15;;;;;;;13.23;11.93;;;;;;;;;;2045841;28;20210;-54
2021/06/11 04:15:15;;;;;;;13.60;12.15;;;;;;;;;;2045024;29;20193;-54
2021/06/11 04:16:38;;;;;;;13.30;12.10;;;;;;;;;;2044901;29;20258;-57
2021/06/11 04:17:45;;;;;;;13.50;12.30;;;;;;;;;;2035182;29;20283;-61
2021/06/11 04:18:46;;;;;;;13.68;12.35;;;;;;;;;;2041596;29;20722;-55
2021/06/11 04:19:54;;;;;;;14.35;12.90;;;;;;;;;;2045674;29;20187;-52
2021/06/11 04:20:57;;;;;;;14.52;12.82;;;;;;;;;;2047809;28;20182;-52
2021/06/11 04:21:58;;;;;;;14.75;13.00;;;;;;;;;;2041798;29;20223;-52
2021/06/11 04:22:59;;;;;;;12.82;11.50;;;;;;;;;;2048316;29;20159;-52
2021/06/11 04:24:11;;;;;;;13.30;11.73;;;;;;;;;;2039222;29;20269;-54
2021/06/11 04:25:12;;;;;;;13.20;11.98;;;;;;;;;;2044024;29;20166;-55
2021/06/11 04:26:13;;;;;;;13.80;11.80;;;;;;;;;;2044008;29;20246;-53
2021/06/11 04:27:13;;;;;;;13.23;11.77;;;;;;;;;;2045906;29;20679;-56
2021/06/11 04:28:14;;;;;;;15.85;12.70;;;;;;;;;;2045842;29;20180;-56
2021/06/11 04:29:18;;;;;;;13.82;12.52;;;;;;;;;;2043647;29;20253;-53
2021/06/11 04:30:18;;;;;;;14.40;13.00;;;;;;;;;;2043408;29;20179;-54
2021/06/11 04:31:18;;;;;;;14.98;13.52;;;;;;;;;;2044244;29;20308;-53
2021/06/11 04:32:19;;;;;;;14.52;13.15;;;;;;;;;;2042023;29;20214;-53
2021/06/11 04:33:24;;;;;;;13.05;11.85;;;;;;;;;;2043114;29;20651;-55
2021/06/11 04:34:24;;;;;;;14.07;12.88;;;;;;;;;;2041281;28;20176;-56
2021/06/11 04:35:26;;;;;;;14.50;12.73;;;;;;;;;;2040528;29;20175;-55
2021/06/11 04:36:29;;;;;;;15.57;14.18;;;;;;;;;;2041333;29;20273;-57
2021/06/11 04:37:29;;;;;;;16.67;13.93;;;;;;;;;;2052291;28;20236;-54
2021/06/11 04:38:35;;;;;;;13.55;12.20;;;;;;;;;;2047553;28;20262;-55
2021/06/11 04:39:35;;;;;;;13.52;12.18;;;;;;;;;;2043983;29;20183;-60
2021/06/11 04:40:35;;;;;;;14.43;13.02;;;;;;;;;;2039770;29;20564;-53
2021/06/11 04:41:36;;;;;;;16.17;13.68;;;;;;;;;;2044359;29;20191;-56
2021/06/11 04:42:36;;;;;;;14.73;13.20;;;;;;;;;;2041978;29;20175;-59
2021/06/11 04:43:36;;;;;;;13.20;11.93;;;;;;;;;;2047535;29;20273;-54
2021/06/11 04:44:37;;;;;;;12.18;10.98;;;;;;;;;;2041611;29;20179;-58
2021/06/11 04:45:37;;;;;;;12.60;11.40;;;;;;;;;;2053003;28;20179;-54
2021/06/11 04:46:39;;;;;;;13.52;12.18;;;;;;;;;;2040698;29;20194;-57
2021/06/11 04:47:39;;;;;;;13.48;12.15;;;;;;;;;;2047743;29;20174;-58
2021/06/11 04:48:39;;;;;;;13.45;12.18;;;;;;;;;;2048499;29;20187;-60
2021/06/11 04:49:40;;;;;;;13.73;12.40;;;;;;;;;;2040733;29;20175;-57
2021/06/11 04:50:40;;;;;;;14.68;12.88;;;;;;;;;;2048291;29;20190;-57
2021/06/11 04:51:40;;;;;;;13.05;11.93;;;;;;;;;;2040177;29;20270;-54
2021/06/11 04:52:40;;;;;;;12.63;11.43;;;;;;;;;;2048131;29;20205;-57
2021/06/11 04:53:41;;;;;;;13.32;12.05;;;;;;;;;;2032776;29;20271;-54
2021/06/11 04:54:41;;;;;;;13.02;11.85;;;;;;;;;;2040470;29;20175;-62
2021/06/11 04:55:41;;;;;;;12.38;11.38;;;;;;;;;;2040797;29;20180;-58
2021/06/11 04:56:41;;;;;;;12.60;11.50;;;;;;;;;;2048874;29;20179;-57
2021/06/11 04:57:42;;;;;;;12.50;11.45;;;;;;;;;;2037993;29;20272;-56
2021/06/11 04:58:43;;;;;;;13.25;11.98;;;;;;;;;;2048684;29;20179;-59
2021/06/11 04:59:43;;;;;;;11.85;10.85;;;;;;;;;;2039256;28;20239;-56
2021/06/11 05:00:43;;;;;;;12.68;11.48;;;;;;;;;;2043040;29;20179;-57
2021/06/11 05:01:45;;;;;;;12.63;11.45;;;;;;;;;;2047763;28;20179;-60
2021/06/11 05:02:46;;;;;;;12.80;11.43;;;;;;;;;;2039113;29;20202;-57
2021/06/11 05:03:46;;;;;;;13.85;12.55;;;;;;;;;;2048594;29;20679;-59
2021/06/11 05:04:46;;;;;;;12.60;11.40;;;;;;;;;;2034680;29;20234;-56
2021/06/11 05:05:46;;;;;;;14.00;12.70;;;;;;;;;;2049091;29;20193;-57
2021/06/11 05:06:47;;;;;;;13.77;12.38;;;;;;;;;;2040123;29;20640;-57
2021/06/11 05:07:47;;;;;;;13.05;11.88;;;;;;;;;;2043016;29;20219;-57
2021/06/11 05:08:47;;;;;;;14.10;12.65;;;;;;;;;;2040726;29;20247;-57
2021/06/11 05:09:48;;;;;;;13.98;12.85;;;;;;;;;;2042631;29;20656;-55
2021/06/11 05:10:48;;;;;;;12.63;11.45;;;;;;;;;;2048572;28;20178;-59
2021/06/11 05:11:48;;;;;;;13.75;12.43;;;;;;;;;;2039630;29;20206;-57
2021/06/11 05:12:48;;;;;;;13.80;12.60;;;;;;;;;;2047610;29;20175;-55
2021/06/11 05:13:49;;;;;;;13.45;12.02;;;;;;;;;;2038156;29;20219;-59
2021/06/11 05:14:49;;;;;;;14.98;13.40;;;;;;;;;;2048420;28;20177;-58
2021/06/11 05:15:49;;;;;;;15.23;13.77;;;;;;;;;;2037944;29;20180;-56
2021/06/11 05:16:50;;;;;;;14.93;13.38;;;;;;;;;;2047815;29;20186;-58
2021/06/11 05:17:50;;;;;;;14.18;12.80;;;;;;;;;;2041409;29;20277;-57
2021/06/11 05:18:50;;;;;;;15.20;13.70;;;;;;;;;;2047551;29;20569;-55
2021/06/11 05:19:50;;;;;;;14.95;13.50;;;;;;;;;;2042161;29;20620;-55
2021/06/11 05:20:51;;;;;;;14.35;13.15;;;;;;;;;;2039312;29;20571;-60
2021/06/11 05:23:00;;;;;;;14.65;13.32;;;;;;;;;;2040233;28;20235;-55
2021/06/11 05:24:01;;;;;;;14.57;13.23;;;;;;;;;;2047702;29;20183;-55
2021/06/11 05:25:02;;;;;;;15.30;13.70;;;;;;;;;;2039693;29;20183;-56
2021/06/11 05:26:02;;;;;;;15.30;13.73;;;;;;;;;;2040421;29;20546;-53
2021/06/11 05:27:02;;;;;;;15.18;13.43;;;;;;;;;;2039332;29;20176;-56
2021/06/11 05:28:03;;;;;;;16.38;14.68;;;;;;;;;;2040455;29;20692;-57
2021/06/11 05:29:03;;;;;;;17.65;13.85;;;;;;;;;;2038958;29;20176;-55
2021/06/11 05:30:04;;;;;;;15.55;14.23;;;;;;;;;;2038027;29;20591;-56
2021/06/11 05:31:04;;;;;;;15.68;14.15;;;;;;;;;;2035591;29;20187;-59
2021/06/11 05:32:05;;;;;;;14.93;13.65;;;;;;;;;;2034998;29;20972;-53
2021/06/11 05:33:05;;;;;;;14.85;13.50;;;;;;;;;;2041614;29;20250;-50
2021/06/11 05:34:06;;;;;;;16.08;14.48;;;;;;;;;;2042298;29;20667;-51
2021/06/11 05:35:06;;;;;;;15.88;14.25;;;;;;;;;;2043475;29;20274;-53
2021/06/11 05:36:06;;;;;;;15.05;13.45;;;;;;;;;;2046011;29;20187;-53
2021/06/11 05:37:07;;;;;;;14.38;13.00;;;;;;;;;;2050501;28;20276;-57
2021/06/11 05:38:07;;;;;;;16.45;14.85;;;;;;;;;;2053429;28;20186;-57
2021/06/11 05:39:07;;;;;;;14.30;13.00;;;;;;;;;;2049867;29;20205;-62
2021/06/11 05:40:08;;;;;;;16.15;14.50;;;;;;;;;;2040126;29;20187;-58
2021/06/11 05:41:08;;;;;;;14.90;13.18;;;;;;;;;;2049305;29;20727;-60
2021/06/11 05:42:08;;;;;;;15.93;14.32;;;;;;;;;;2049877;29;20169;-60
2021/06/11 05:43:09;;;;;;;15.80;13.95;;;;;;;;;;2038482;29;20640;-60
2021/06/11 05:44:09;;;;;;;15.68;14.18;;;;;;;;;;2042286;29;20203;-54
2021/06/11 05:45:10;;;;;;;16.45;14.85;;;;;;;;;;2042461;29;20635;-55
2021/06/11 05:46:11;;;;;;;16.17;14.27;;;;;;;;;;2049620;29;20246;-54
2021/06/11 05:47:12;;;;;;;15.48;13.88;;;;;;;;;;2042209;29;20187;-53
2021/06/11 05:48:12;;;;;;;15.23;13.82;;;;;;;;;;2042500;29;20224;-53
2021/06/11 05:49:12;;;;;;;15.20;13.73;;;;;;;;;;2042022;29;20213;-53
2021/06/11 05:50:13;;;;;;;15.60;13.70;;;;;;;;;;2043263;29;20180;-54
2021/06/11 05:51:13;;;;;;;15.27;13.68;;;;;;;;;;2046590;29;20246;-56
2021/06/11 05:52:13;;;;;;;14.38;13.02;;;;;;;;;;2045872;28;20180;-61
2021/06/11 05:53:13;;;;;;;14.50;13.10;;;;;;;;;;2044038;29;20179;-60
2021/06/11 05:54:14;;;;;;;14.23;12.88;;;;;;;;;;2044453;29;20190;-60
2021/06/11 05:55:14;;;;;;;15.10;13.20;;;;;;;;;;2043086;29;20580;-61
2021/06/11 05:56:15;;;;;;;15.68;13.18;;;;;;;;;;2044190;29;20321;-58
2021/06/11 05:57:15;;;;;;;14.68;12.98;;;;;;;;;;2045277;29;20179;-59
2021/06/11 05:58:15;;;;;;;14.85;13.45;;;;;;;;;;2044778;29;20176;-53
2021/06/11 05:59:16;;;;;;;13.63;12.23;;;;;;;;;;2045517;29;20655;-55
2021/06/11 06:00:16;;;;;;;14.77;13.45;;;;;;;;;;2045009;29;20637;-54
2021/06/11 06:01:16;;;;;;;15.23;13.57;;;;;;;;;;2041736;28;20684;-55
2021/06/11 06:02:17;;;;;;;14.88;13.43;;;;;;;;;;2044437;28;20246;-53
2021/06/11 06:03:17;;;;;;;15.38;13.80;;;;;;;;;;2045369;29;20175;-54
2021/06/11 06:04:17;;;;;;;14.50;13.18;;;;;;;;;;2045205;28;20652;-54
2021/06/11 06:05:18;;;;;;;14.80;13.40;;;;;;;;;;2043159;29;20177;-53
2021/06/11 06:06:18;;;;;;;14.82;13.63;;;;;;;;;;2042631;28;20221;-52
2021/06/11 06:07:19;;;;;;;14.43;13.07;;;;;;;;;;2043988;29;20664;-51